createdAt,value
2017-10-25T00:00:57.920Z,1011.67
2017-10-25T00:01:57.906Z,1011.69
2017-10-25T00:02:57.892Z,1011.67
2017-10-25T00:03:57.881Z,1011.69
2017-10-25T00:04:57.867Z,1011.72
2017-10-25T00:05:57.865Z,1011.68
2017-10-25T00:06:57.843Z,1011.71
2017-10-25T00:07:57.832Z,1011.68
2017-10-25T00:08:57.815Z,1011.65
2017-10-25T00:09:57.804Z,1011.64
2017-10-25T00:10:57.794Z,1011.64
2017-10-25T00:11:57.783Z,1011.64
2017-10-25T00:12:57.766Z,1011.62
2017-10-25T00:13:57.754Z,1011.6
2017-10-25T00:14:57.742Z,1011.57
2017-10-25T00:15:57.731Z,1011.54
2017-10-25T00:16:57.716Z,1011.54
2017-10-25T00:17:57.707Z,1011.58
2017-10-25T00:18:57.689Z,1011.56
2017-10-25T00:19:57.677Z,1011.6
2017-10-25T00:20:57.664Z,1011.58
2017-10-25T00:21:57.651Z,1011.52
2017-10-25T00:22:57.651Z,1011.52
2017-10-25T00:23:57.626Z,1011.53
2017-10-25T00:24:57.612Z,1011.51
2017-10-25T00:25:57.599Z,1011.51
2017-10-25T00:26:57.586Z,1011.53
2017-10-25T00:27:57.575Z,1011.52
2017-10-25T00:28:57.560Z,1011.56
2017-10-25T00:29:57.546Z,1011.55
2017-10-25T00:30:57.537Z,1011.56
2017-10-25T00:31:57.533Z,1011.53
2017-10-25T00:32:57.509Z,1011.54
2017-10-25T00:33:57.498Z,1011.55
2017-10-25T00:34:57.494Z,1011.57
2017-10-25T00:35:57.471Z,1011.53
2017-10-25T00:36:57.464Z,1011.6
2017-10-25T00:37:57.445Z,1011.58
2017-10-25T00:38:57.433Z,1011.55
2017-10-25T00:39:57.425Z,1011.57
2017-10-25T00:40:57.413Z,1011.59
2017-10-25T00:41:57.396Z,1011.55
2017-10-25T00:42:57.381Z,1011.6
2017-10-25T00:43:57.368Z,1011.57
2017-10-25T00:44:57.355Z,1011.56
2017-10-25T00:45:57.345Z,1011.52
2017-10-25T00:46:57.331Z,1011.46
2017-10-25T00:47:57.321Z,1011.48
2017-10-25T00:48:57.305Z,1011.44
2017-10-25T00:49:57.296Z,1011.45
2017-10-25T00:50:57.281Z,1011.45
2017-10-25T00:51:57.270Z,1011.44
2017-10-25T00:52:57.258Z,1011.43
2017-10-25T00:53:57.243Z,1011.43
2017-10-25T00:54:57.229Z,1011.43
2017-10-25T00:55:57.217Z,1011.38
2017-10-25T00:56:57.205Z,1011.44
2017-10-25T00:57:57.196Z,1011.42
2017-10-25T00:58:57.182Z,1011.42
2017-10-25T00:59:57.179Z,1011.44
2017-10-25T01:00:57.153Z,1011.4
2017-10-25T01:01:57.143Z,1011.38
2017-10-25T01:02:57.132Z,1011.4
2017-10-25T01:03:57.119Z,1011.38
2017-10-25T01:04:57.104Z,1011.41
2017-10-25T01:05:57.091Z,1011.41
2017-10-25T01:06:57.078Z,1011.37
2017-10-25T01:07:57.066Z,1011.38
2017-10-25T01:08:57.056Z,1011.37
2017-10-25T01:09:57.040Z,1011.38
2017-10-25T01:10:57.029Z,1011.34
2017-10-25T01:11:57.022Z,1011.38
2017-10-25T01:12:57.005Z,1011.36
2017-10-25T01:13:56.993Z,1011.36
2017-10-25T01:14:56.978Z,1011.36
2017-10-25T01:15:56.964Z,1011.36
2017-10-25T01:16:56.952Z,1011.33
2017-10-25T01:17:56.941Z,1011.33
2017-10-25T01:18:56.936Z,1011.33
2017-10-25T01:19:56.920Z,1011.3
2017-10-25T01:20:56.904Z,1011.33
2017-10-25T01:21:56.895Z,1011.25
2017-10-25T01:22:56.931Z,1011.2
2017-10-25T01:23:56.865Z,1011.24
2017-10-25T01:24:57.061Z,1011.22
2017-10-25T01:25:56.844Z,1011.23
2017-10-25T01:26:56.828Z,1011.22
2017-10-25T01:27:56.815Z,1011.21
2017-10-25T01:28:56.806Z,1011.2
2017-10-25T01:29:56.791Z,1011.21
2017-10-25T01:30:56.778Z,1011.19
2017-10-25T01:31:56.766Z,1011.23
2017-10-25T01:32:56.753Z,1011.22
2017-10-25T01:33:56.743Z,1011.24
2017-10-25T01:34:56.727Z,1011.24
2017-10-25T01:35:56.717Z,1011.23
2017-10-25T01:36:56.703Z,1011.26
2017-10-25T01:37:56.691Z,1011.21
2017-10-25T01:38:56.679Z,1011.21
2017-10-25T01:39:56.665Z,1011.17
2017-10-25T01:40:56.655Z,1011.17
2017-10-25T01:41:56.640Z,1011.1
2017-10-25T01:42:56.629Z,1011.1
2017-10-25T01:43:56.614Z,1011.04
2017-10-25T01:44:56.602Z,1011.12
2017-10-25T01:45:56.592Z,1011.08
2017-10-25T01:46:56.578Z,1011.1
2017-10-25T01:47:56.569Z,1011.11
2017-10-25T01:48:56.553Z,1011.11
2017-10-25T01:49:56.544Z,1011.09
2017-10-25T01:50:56.529Z,1011.05
2017-10-25T01:51:56.518Z,1011.05
2017-10-25T01:52:56.504Z,1011.06
2017-10-25T01:53:56.493Z,1011.04
2017-10-25T01:54:56.478Z,1011.07
2017-10-25T01:55:56.463Z,1011.03
2017-10-25T01:56:56.453Z,1011.03
2017-10-25T01:57:56.442Z,1011.04
2017-10-25T01:58:56.429Z,1011.04
2017-10-25T01:59:56.420Z,1011.06
2017-10-25T02:00:56.405Z,1011.05
2017-10-25T02:01:56.392Z,1011.07
2017-10-25T02:02:56.378Z,1011.03
2017-10-25T02:03:56.367Z,1011.04
2017-10-25T02:04:56.353Z,1011.01
2017-10-25T02:05:56.340Z,1011.02
2017-10-25T02:06:56.329Z,1011.06
2017-10-25T02:07:56.315Z,1011.05
2017-10-25T02:08:56.302Z,1011
2017-10-25T02:09:56.292Z,1011.01
2017-10-25T02:10:56.280Z,1011.04
2017-10-25T02:11:56.266Z,1011.08
2017-10-25T02:12:56.251Z,1011.01
2017-10-25T02:13:56.241Z,1011.02
2017-10-25T02:14:56.230Z,1010.96
2017-10-25T02:15:56.217Z,1010.99
2017-10-25T02:16:56.203Z,1010.98
2017-10-25T02:17:56.196Z,1010.99
2017-10-25T02:18:56.175Z,1010.98
2017-10-25T02:19:56.164Z,1010.99
2017-10-25T02:20:56.151Z,1011.01
2017-10-25T02:21:56.139Z,1010.95
2017-10-25T02:22:56.124Z,1011.01
2017-10-25T02:23:56.113Z,1010.98
2017-10-25T02:24:56.103Z,1010.98
2017-10-25T02:25:56.087Z,1010.94
2017-10-25T02:26:56.074Z,1011.01
2017-10-25T02:27:56.064Z,1010.99
2017-10-25T02:28:56.051Z,1010.93
2017-10-25T02:29:56.040Z,1010.93
2017-10-25T02:30:56.023Z,1010.99
2017-10-25T02:31:56.013Z,1010.91
2017-10-25T02:32:56.001Z,1010.91
2017-10-25T02:33:55.989Z,1010.96
2017-10-25T02:34:55.974Z,1010.96
2017-10-25T02:35:55.958Z,1010.94
2017-10-25T02:36:55.948Z,1010.98
2017-10-25T02:37:55.933Z,1010.96
2017-10-25T02:38:55.920Z,1010.96
2017-10-25T02:39:55.909Z,1011.01
2017-10-25T02:40:55.897Z,1010.98
2017-10-25T02:41:55.881Z,1010.93
2017-10-25T02:42:55.869Z,1011.02
2017-10-25T02:43:55.853Z,1010.93
2017-10-25T02:44:55.842Z,1010.93
2017-10-25T02:45:55.830Z,1010.9
2017-10-25T02:46:55.820Z,1010.91
2017-10-25T02:47:55.812Z,1010.92
2017-10-25T02:48:55.788Z,1010.88
2017-10-25T02:49:55.778Z,1010.88
2017-10-25T02:50:55.763Z,1010.88
2017-10-25T02:51:55.750Z,1010.85
2017-10-25T02:52:55.740Z,1010.85
2017-10-25T02:53:55.726Z,1010.85
2017-10-25T02:54:55.710Z,1010.82
2017-10-25T02:55:55.701Z,1010.84
2017-10-25T02:56:55.686Z,1010.82
2017-10-25T02:57:55.673Z,1010.77
2017-10-25T02:58:55.660Z,1010.77
2017-10-25T02:59:55.654Z,1010.82
2017-10-25T03:00:55.632Z,1010.79
2017-10-25T03:01:55.636Z,1010.81
2017-10-25T03:02:55.604Z,1010.81
2017-10-25T03:03:55.593Z,1010.78
2017-10-25T03:04:55.597Z,1010.77
2017-10-25T03:05:55.567Z,1010.76
2017-10-25T03:06:55.557Z,1010.82
2017-10-25T03:07:55.542Z,1010.82
2017-10-25T03:08:55.530Z,1010.85
2017-10-25T03:09:55.520Z,1010.83
2017-10-25T03:10:55.506Z,1010.83
2017-10-25T03:11:55.492Z,1010.74
2017-10-25T03:12:55.476Z,1010.78
2017-10-25T03:13:55.460Z,1010.76
2017-10-25T03:14:55.447Z,1010.8
2017-10-25T03:15:55.439Z,1010.77
2017-10-25T03:16:55.421Z,1010.74
2017-10-25T03:17:55.407Z,1010.71
2017-10-25T03:18:55.395Z,1010.73
2017-10-25T03:19:55.381Z,1010.77
2017-10-25T03:20:55.368Z,1010.72
2017-10-25T03:21:55.354Z,1010.74
2017-10-25T03:22:55.344Z,1010.75
2017-10-25T03:23:55.329Z,1010.74
2017-10-25T03:24:55.518Z,1010.71
2017-10-25T03:25:55.304Z,1010.7
2017-10-25T03:26:55.288Z,1010.76
2017-10-25T03:27:55.276Z,1010.69
2017-10-25T03:28:55.262Z,1010.73
2017-10-25T03:29:55.251Z,1010.73
2017-10-25T03:30:55.237Z,1010.7
2017-10-25T03:31:55.225Z,1010.76
2017-10-25T03:32:55.213Z,1010.75
2017-10-25T03:33:55.199Z,1010.75
2017-10-25T03:34:55.185Z,1010.74
2017-10-25T03:35:55.174Z,1010.74
2017-10-25T03:36:55.158Z,1010.71
2017-10-25T03:37:55.145Z,1010.73
2017-10-25T03:38:55.131Z,1010.69
2017-10-25T03:39:55.123Z,1010.63
2017-10-25T03:40:55.105Z,1010.7
2017-10-25T03:41:55.092Z,1010.71
2017-10-25T03:42:55.078Z,1010.61
2017-10-25T03:43:55.069Z,1010.62
2017-10-25T03:44:55.052Z,1010.59
2017-10-25T03:45:55.041Z,1010.58
2017-10-25T03:46:55.030Z,1010.6
2017-10-25T03:47:55.014Z,1010.59
2017-10-25T03:48:55.001Z,1010.61
2017-10-25T03:49:54.989Z,1010.54
2017-10-25T03:50:54.974Z,1010.57
2017-10-25T03:51:54.967Z,1010.54
2017-10-25T03:52:54.948Z,1010.59
2017-10-25T03:53:54.933Z,1010.57
2017-10-25T03:54:54.920Z,1010.6
2017-10-25T03:55:54.909Z,1010.63
2017-10-25T03:56:54.894Z,1010.6
2017-10-25T03:57:54.882Z,1010.59
2017-10-25T03:58:54.872Z,1010.56
2017-10-25T03:59:54.857Z,1010.61
2017-10-25T04:00:54.857Z,1010.58
2017-10-25T04:01:54.834Z,1010.66
2017-10-25T04:02:54.817Z,1010.67
2017-10-25T04:03:54.805Z,1010.66
2017-10-25T04:04:54.793Z,1010.62
2017-10-25T04:05:54.776Z,1010.64
2017-10-25T04:06:54.767Z,1010.68
2017-10-25T04:07:54.753Z,1010.62
2017-10-25T04:08:54.741Z,1010.67
2017-10-25T04:09:54.729Z,1010.63
2017-10-25T04:10:54.715Z,1010.62
2017-10-25T04:11:54.702Z,1010.66
2017-10-25T04:12:54.697Z,1010.64
2017-10-25T04:13:54.676Z,1010.65
2017-10-25T04:14:54.661Z,1010.64
2017-10-25T04:15:54.648Z,1010.62
2017-10-25T04:16:54.642Z,1010.65
2017-10-25T04:17:54.622Z,1010.63
2017-10-25T04:18:54.607Z,1010.6
2017-10-25T04:19:54.596Z,1010.61
2017-10-25T04:20:54.583Z,1010.59
2017-10-25T04:21:54.570Z,1010.57
2017-10-25T04:22:54.560Z,1010.58
2017-10-25T04:23:54.545Z,1010.55
2017-10-25T04:24:54.530Z,1010.55
2017-10-25T04:25:54.519Z,1010.54
2017-10-25T04:26:54.506Z,1010.52
2017-10-25T04:27:54.493Z,1010.48
2017-10-25T04:28:54.481Z,1010.5
2017-10-25T04:29:54.567Z,1010.48
2017-10-25T04:30:54.454Z,1010.49
2017-10-25T04:31:54.447Z,1010.5
2017-10-25T04:32:54.430Z,1010.5
2017-10-25T04:33:54.413Z,1010.47
2017-10-25T04:34:54.403Z,1010.48
2017-10-25T04:35:54.389Z,1010.51
2017-10-25T04:36:54.375Z,1010.45
2017-10-25T04:37:54.364Z,1010.47
2017-10-25T04:38:54.350Z,1010.47
2017-10-25T04:39:54.338Z,1010.46
2017-10-25T04:40:54.325Z,1010.44
2017-10-25T04:41:54.311Z,1010.43
2017-10-25T04:42:54.299Z,1010.5
2017-10-25T04:43:54.284Z,1010.5
2017-10-25T04:44:54.271Z,1010.46
2017-10-25T04:45:54.262Z,1010.41
2017-10-25T04:46:54.246Z,1010.46
2017-10-25T04:47:54.233Z,1010.49
2017-10-25T04:48:54.219Z,1010.46
2017-10-25T04:49:54.206Z,1010.46
2017-10-25T04:50:54.193Z,1010.43
2017-10-25T04:51:54.191Z,1010.45
2017-10-25T04:52:54.172Z,1010.48
2017-10-25T04:53:54.158Z,1010.43
2017-10-25T04:54:54.141Z,1010.42
2017-10-25T04:55:54.129Z,1010.48
2017-10-25T04:56:54.117Z,1010.47
2017-10-25T04:57:54.104Z,1010.42
2017-10-25T04:58:54.089Z,1010.41
2017-10-25T04:59:54.078Z,1010.41
2017-10-25T05:00:54.063Z,1010.34
2017-10-25T05:01:54.052Z,1010.28
2017-10-25T05:02:54.036Z,1010.36
2017-10-25T05:03:54.026Z,1010.37
2017-10-25T05:04:54.010Z,1010.36
2017-10-25T05:05:53.999Z,1010.33
2017-10-25T05:06:53.985Z,1010.35
2017-10-25T05:07:53.973Z,1010.33
2017-10-25T05:08:53.960Z,1010.34
2017-10-25T05:09:53.947Z,1010.36
2017-10-25T05:10:53.932Z,1010.31
2017-10-25T05:11:53.921Z,1010.37
2017-10-25T05:12:53.908Z,1010.41
2017-10-25T05:13:53.893Z,1010.34
2017-10-25T05:14:53.881Z,1010.29
2017-10-25T05:15:53.867Z,1010.29
2017-10-25T05:16:53.855Z,1010.25
2017-10-25T05:17:53.842Z,1010.24
2017-10-25T05:18:53.832Z,1010.25
2017-10-25T05:19:53.817Z,1010.25
2017-10-25T05:20:53.803Z,1010.26
2017-10-25T05:21:53.790Z,1010.26
2017-10-25T05:22:53.776Z,1010.24
2017-10-25T05:23:53.765Z,1010.22
2017-10-25T05:24:53.953Z,1010.21
2017-10-25T05:25:53.743Z,1010.22
2017-10-25T05:26:53.725Z,1010.2
2017-10-25T05:27:53.710Z,1010.17
2017-10-25T05:28:53.715Z,1010.16
2017-10-25T05:29:53.687Z,1010.1
2017-10-25T05:30:53.673Z,1010.11
2017-10-25T05:31:53.661Z,1010.11
2017-10-25T05:32:53.648Z,1010.14
2017-10-25T05:33:53.639Z,1010.15
2017-10-25T05:34:53.621Z,1010.12
2017-10-25T05:35:53.610Z,1010.11
2017-10-25T05:36:53.597Z,1010.1
2017-10-25T05:37:53.583Z,1010.06
2017-10-25T05:38:53.569Z,1010.03
2017-10-25T05:39:53.560Z,1009.99
2017-10-25T05:40:53.543Z,1009.97
2017-10-25T05:41:53.530Z,1009.9
2017-10-25T05:42:53.518Z,1009.92
2017-10-25T05:43:53.504Z,1009.85
2017-10-25T05:44:53.490Z,1009.89
2017-10-25T05:45:53.478Z,1009.87
2017-10-25T05:46:53.466Z,1009.94
2017-10-25T05:47:53.458Z,1009.99
2017-10-25T05:48:53.439Z,1009.91
2017-10-25T05:49:53.425Z,1009.96
2017-10-25T05:50:53.413Z,1009.9
2017-10-25T05:51:53.399Z,1009.93
2017-10-25T05:52:53.402Z,1009.9
2017-10-25T05:53:53.374Z,1009.89
2017-10-25T05:54:53.364Z,1009.97
2017-10-25T05:55:53.348Z,1009.92
2017-10-25T05:56:53.333Z,1009.97
2017-10-25T05:57:53.322Z,1009.98
2017-10-25T05:58:53.309Z,1009.94
2017-10-25T05:59:53.300Z,1009.94
2017-10-25T06:00:53.281Z,1009.93
2017-10-25T06:01:53.271Z,1009.96
2017-10-25T06:02:53.257Z,1010.01
2017-10-25T06:03:53.243Z,1010.02
2017-10-25T06:04:53.229Z,1010.03
2017-10-25T06:05:53.217Z,1010.04
2017-10-25T06:06:53.204Z,1010
2017-10-25T06:07:53.188Z,1009.99
2017-10-25T06:08:53.176Z,1009.96
2017-10-25T06:09:53.166Z,1009.97
2017-10-25T06:10:53.152Z,1010.01
2017-10-25T06:11:53.146Z,1009.98
2017-10-25T06:12:53.128Z,1009.95
2017-10-25T06:13:53.110Z,1010
2017-10-25T06:14:53.102Z,1010.01
2017-10-25T06:15:53.086Z,1009.98
2017-10-25T06:16:53.074Z,1009.97
2017-10-25T06:17:53.061Z,1010
2017-10-25T06:18:53.049Z,1009.96
2017-10-25T06:19:53.036Z,1010.04
2017-10-25T06:20:53.023Z,1010.11
2017-10-25T06:21:53.009Z,1009.94
2017-10-25T06:22:52.995Z,1009.97
2017-10-25T06:23:52.996Z,1009.88
2017-10-25T06:24:52.972Z,1009.96
2017-10-25T06:25:53.057Z,1009.88
2017-10-25T06:26:52.944Z,1009.87
2017-10-25T06:27:52.929Z,1009.87
2017-10-25T06:28:52.918Z,1009.88
2017-10-25T06:29:52.906Z,1009.89
2017-10-25T06:30:52.898Z,1009.9
2017-10-25T06:31:52.878Z,1009.92
2017-10-25T06:32:52.865Z,1009.93
2017-10-25T06:33:52.851Z,1009.95
2017-10-25T06:34:52.838Z,1009.93
2017-10-25T06:35:52.826Z,1010
2017-10-25T06:36:52.814Z,1010.09
2017-10-25T06:37:52.800Z,1010
2017-10-25T06:38:52.785Z,1009.94
2017-10-25T06:39:52.777Z,1009.99
2017-10-25T06:40:52.762Z,1010.05
2017-10-25T06:41:52.746Z,1010.01
2017-10-25T06:42:52.738Z,1010.04
2017-10-25T06:43:52.723Z,1010.14
2017-10-25T06:44:52.708Z,1010.12
2017-10-25T06:45:52.697Z,1010.17
2017-10-25T06:46:52.686Z,1010.19
2017-10-25T06:47:52.669Z,1010.17
2017-10-25T06:48:52.660Z,1010.22
2017-10-25T06:49:52.643Z,1010.33
2017-10-25T06:50:52.631Z,1010.25
2017-10-25T06:51:52.620Z,1010.29
2017-10-25T06:52:52.605Z,1010.32
2017-10-25T06:53:52.592Z,1010.36
2017-10-25T06:54:52.579Z,1010.37
2017-10-25T06:55:52.566Z,1010.35
2017-10-25T06:56:52.557Z,1010.41
2017-10-25T06:57:52.544Z,1010.44
2017-10-25T06:58:52.542Z,1010.51
2017-10-25T06:59:52.514Z,1010.54
2017-10-25T07:00:52.506Z,1010.53
2017-10-25T07:01:52.490Z,1010.53
2017-10-25T07:02:52.478Z,1010.51
2017-10-25T07:03:52.465Z,1010.52
2017-10-25T07:04:52.452Z,1010.6
2017-10-25T07:05:52.441Z,1010.58
2017-10-25T07:06:52.425Z,1010.63
2017-10-25T07:07:52.417Z,1010.66
2017-10-25T07:08:52.401Z,1010.68
2017-10-25T07:09:52.390Z,1010.68
2017-10-25T07:10:52.376Z,1010.74
2017-10-25T07:11:52.363Z,1010.82
2017-10-25T07:12:52.351Z,1010.79
2017-10-25T07:13:52.337Z,1010.74
2017-10-25T07:14:52.325Z,1010.78
2017-10-25T07:15:52.313Z,1010.71
2017-10-25T07:16:52.302Z,1010.82
2017-10-25T07:17:52.288Z,1010.76
2017-10-25T07:18:52.281Z,1010.72
2017-10-25T07:19:52.265Z,1010.77
2017-10-25T07:20:52.250Z,1010.79
2017-10-25T07:21:52.239Z,1010.79
2017-10-25T07:22:52.225Z,1010.87
2017-10-25T07:23:52.213Z,1010.85
2017-10-25T07:24:52.405Z,1010.88
2017-10-25T07:25:52.189Z,1010.92
2017-10-25T07:26:52.177Z,1010.89
2017-10-25T07:27:52.162Z,1010.82
2017-10-25T07:28:52.151Z,1010.93
2017-10-25T07:29:52.138Z,1010.89
2017-10-25T07:30:52.126Z,1010.92
2017-10-25T07:31:52.110Z,1010.9
2017-10-25T07:32:52.104Z,1010.86
2017-10-25T07:33:52.095Z,1010.88
2017-10-25T07:34:52.078Z,1010.86
2017-10-25T07:35:52.063Z,1010.89
2017-10-25T07:36:52.050Z,1010.85
2017-10-25T07:37:52.039Z,1010.87
2017-10-25T07:38:52.028Z,1010.9
2017-10-25T07:39:52.014Z,1010.92
2017-10-25T07:40:51.998Z,1010.93
2017-10-25T07:41:51.986Z,1010.93
2017-10-25T07:42:51.977Z,1010.9
2017-10-25T07:43:51.962Z,1010.9
2017-10-25T07:44:51.951Z,1010.9
2017-10-25T07:45:51.938Z,1010.98
2017-10-25T07:46:51.924Z,1010.94
2017-10-25T07:47:51.917Z,1011.01
2017-10-25T07:48:51.905Z,1011.01
2017-10-25T07:49:51.887Z,1010.97
2017-10-25T07:50:51.875Z,1010.95
2017-10-25T07:51:51.868Z,1010.91
2017-10-25T07:52:51.851Z,1011.05
2017-10-25T07:53:51.842Z,1011
2017-10-25T07:54:51.826Z,1011.03
2017-10-25T07:55:51.813Z,1010.97
2017-10-25T07:56:51.803Z,1010.96
2017-10-25T07:57:51.792Z,1010.91
2017-10-25T07:58:51.779Z,1011.02
2017-10-25T07:59:51.765Z,1011.07
2017-10-25T08:00:51.753Z,1011.05
2017-10-25T08:01:51.741Z,1011.08
2017-10-25T08:02:51.731Z,1011.09
2017-10-25T08:03:51.716Z,1011.04
2017-10-25T08:04:51.705Z,1011.04
2017-10-25T08:05:51.691Z,1011.04
2017-10-25T08:06:51.683Z,1011
2017-10-25T08:07:51.667Z,1010.94
2017-10-25T08:08:51.657Z,1010.99
2017-10-25T08:09:51.643Z,1010.94
2017-10-25T08:10:51.629Z,1010.89
2017-10-25T08:11:51.622Z,1010.9
2017-10-25T08:12:51.606Z,1010.93
2017-10-25T08:13:51.596Z,1010.87
2017-10-25T08:14:51.586Z,1010.85
2017-10-25T08:15:51.571Z,1010.83
2017-10-25T08:16:51.565Z,1010.78
2017-10-25T08:17:51.547Z,1010.77
2017-10-25T08:18:51.535Z,1010.77
2017-10-25T08:19:51.524Z,1010.8
2017-10-25T08:20:51.513Z,1010.75
2017-10-25T08:21:51.499Z,1010.83
2017-10-25T08:22:51.486Z,1010.84
2017-10-25T08:23:51.476Z,1010.89
2017-10-25T08:24:51.463Z,1010.94
2017-10-25T08:25:51.452Z,1011.1
2017-10-25T08:26:51.438Z,1011.07
2017-10-25T08:27:51.426Z,1011.06
2017-10-25T08:28:51.415Z,1011.14
2017-10-25T08:29:51.403Z,1011.04
2017-10-25T08:30:51.393Z,1011.02
2017-10-25T08:31:51.381Z,1011
2017-10-25T08:32:51.370Z,1011.01
2017-10-25T08:33:51.357Z,1010.98
2017-10-25T08:34:51.347Z,1010.96
2017-10-25T08:35:51.332Z,1010.93
2017-10-25T08:36:51.336Z,1010.95
2017-10-25T08:37:51.366Z,1010.93
2017-10-25T08:38:51.296Z,1010.9
2017-10-25T08:39:51.285Z,1010.87
2017-10-25T08:40:51.275Z,1010.9
2017-10-25T08:41:51.263Z,1010.85
2017-10-25T08:42:51.249Z,1010.91
2017-10-25T08:43:51.240Z,1010.87
2017-10-25T08:44:51.254Z,1010.85
2017-10-25T08:45:51.215Z,1010.95
2017-10-25T08:46:51.203Z,1010.95
2017-10-25T08:47:51.194Z,1011
2017-10-25T08:48:51.185Z,1010.97
2017-10-25T08:49:51.166Z,1010.99
2017-10-25T08:50:51.156Z,1011.05
2017-10-25T08:51:51.149Z,1010.95
2017-10-25T08:52:51.132Z,1010.99
2017-10-25T08:53:51.122Z,1011.01
2017-10-25T08:54:51.112Z,1010.93
2017-10-25T08:55:51.103Z,1010.94
2017-10-25T08:56:51.086Z,1010.94
2017-10-25T08:57:51.080Z,1010.97
2017-10-25T08:58:51.063Z,1010.96
2017-10-25T08:59:51.053Z,1010.99
2017-10-25T09:00:51.044Z,1010.97
2017-10-25T09:01:51.032Z,1011.07
2017-10-25T09:02:51.018Z,1011
2017-10-25T09:03:51.005Z,1011.1
2017-10-25T09:04:50.996Z,1011.11
2017-10-25T09:05:50.983Z,1011.12
2017-10-25T09:06:50.975Z,1011.16
2017-10-25T09:07:50.962Z,1011.1
2017-10-25T09:08:50.950Z,1011.17
2017-10-25T09:09:50.939Z,1011.17
2017-10-25T09:10:50.926Z,1011.23
2017-10-25T09:11:50.914Z,1011.16
2017-10-25T09:12:50.909Z,1011.18
2017-10-25T09:13:50.893Z,1011.18
2017-10-25T09:14:50.881Z,1011.19
2017-10-25T09:15:50.870Z,1011.22
2017-10-25T09:16:50.860Z,1011.23
2017-10-25T09:17:50.947Z,1011.21
2017-10-25T09:18:50.836Z,1011.28
2017-10-25T09:19:50.824Z,1011.27
2017-10-25T09:20:50.812Z,1011.21
2017-10-25T09:21:50.800Z,1011.2
2017-10-25T09:22:50.789Z,1011.24
2017-10-25T09:23:50.777Z,1011.31
2017-10-25T09:24:50.970Z,1011.36
2017-10-25T09:25:50.754Z,1011.44
2017-10-25T09:26:50.742Z,1011.39
2017-10-25T09:27:50.731Z,1011.41
2017-10-25T09:28:50.719Z,1011.51
2017-10-25T09:29:50.706Z,1011.46
2017-10-25T09:30:50.698Z,1011.43
2017-10-25T09:31:50.693Z,1011.45
2017-10-25T09:32:50.673Z,1011.45
2017-10-25T09:33:50.663Z,1011.44
2017-10-25T09:34:50.651Z,1011.43
2017-10-25T09:35:50.640Z,1011.51
2017-10-25T09:36:50.632Z,1011.52
2017-10-25T09:37:50.617Z,1011.48
2017-10-25T09:38:50.605Z,1011.49
2017-10-25T09:39:50.597Z,1011.49
2017-10-25T09:40:50.583Z,1011.45
2017-10-25T09:41:50.571Z,1011.59
2017-10-25T09:42:50.561Z,1011.57
2017-10-25T09:43:50.550Z,1011.75
2017-10-25T09:44:50.543Z,1011.62
2017-10-25T09:45:50.532Z,1011.67
2017-10-25T09:46:50.515Z,1011.61
2017-10-25T09:47:50.503Z,1011.56
2017-10-25T09:48:50.491Z,1011.59
2017-10-25T09:49:50.481Z,1011.66
2017-10-25T09:50:50.470Z,1011.59
2017-10-25T09:51:50.461Z,1011.68
2017-10-25T09:52:50.445Z,1011.62
2017-10-25T09:53:50.434Z,1011.6
2017-10-25T09:54:50.420Z,1011.56
2017-10-25T09:55:50.417Z,1011.45
2017-10-25T09:56:50.398Z,1011.56
2017-10-25T09:57:50.387Z,1011.57
2017-10-25T09:58:50.377Z,1011.53
2017-10-25T09:59:50.362Z,1011.6
2017-10-25T10:00:50.353Z,1011.58
2017-10-25T10:01:50.341Z,1011.64
2017-10-25T10:02:50.328Z,1011.59
2017-10-25T10:03:50.318Z,1011.57
2017-10-25T10:04:50.306Z,1011.59
2017-10-25T10:05:50.295Z,1011.58
2017-10-25T10:06:50.283Z,1011.59
2017-10-25T10:07:50.273Z,1011.57
2017-10-25T10:08:50.259Z,1011.57
2017-10-25T10:09:50.246Z,1011.61
2017-10-25T10:10:50.236Z,1011.69
2017-10-25T10:11:50.225Z,1011.6
2017-10-25T10:12:50.211Z,1011.68
2017-10-25T10:13:50.207Z,1011.68
2017-10-25T10:14:50.187Z,1011.64
2017-10-25T10:15:50.176Z,1011.64
2017-10-25T10:16:50.165Z,1011.67
2017-10-25T10:17:50.152Z,1011.67
2017-10-25T10:18:50.141Z,1011.65
2017-10-25T10:19:50.135Z,1011.62
2017-10-25T10:20:50.117Z,1011.66
2017-10-25T10:21:50.107Z,1011.63
2017-10-25T10:22:50.095Z,1011.67
2017-10-25T10:23:50.181Z,1011.68
2017-10-25T10:24:50.070Z,1011.66
2017-10-25T10:25:50.065Z,1011.67
2017-10-25T10:26:50.048Z,1011.65
2017-10-25T10:27:50.036Z,1011.61
2017-10-25T10:28:50.021Z,1011.61
2017-10-25T10:29:50.009Z,1011.67
2017-10-25T10:30:50.000Z,1011.65
2017-10-25T10:31:49.983Z,1011.7
2017-10-25T10:32:49.974Z,1011.79
2017-10-25T10:33:49.962Z,1011.58
2017-10-25T10:34:49.947Z,1011.66
2017-10-25T10:35:49.935Z,1011.65
2017-10-25T10:36:49.922Z,1011.67
2017-10-25T10:37:49.912Z,1011.63
2017-10-25T10:38:49.898Z,1011.68
2017-10-25T10:39:49.885Z,1011.67
2017-10-25T10:40:49.874Z,1011.79
2017-10-25T10:41:49.861Z,1011.67
2017-10-25T10:42:49.849Z,1011.71
2017-10-25T10:43:49.836Z,1011.68
2017-10-25T10:44:49.823Z,1011.71
2017-10-25T10:45:49.811Z,1011.68
2017-10-25T10:46:49.800Z,1011.71
2017-10-25T10:47:49.786Z,1011.72
2017-10-25T10:48:49.775Z,1011.78
2017-10-25T10:49:49.761Z,1011.78
2017-10-25T10:50:49.750Z,1011.78
2017-10-25T10:51:49.737Z,1011.8
2017-10-25T10:52:49.725Z,1011.85
2017-10-25T10:53:49.712Z,1011.88
2017-10-25T10:54:49.699Z,1011.92
2017-10-25T10:55:49.687Z,1011.88
2017-10-25T10:56:49.675Z,1011.85
2017-10-25T10:57:49.662Z,1011.86
2017-10-25T10:58:49.652Z,1011.87
2017-10-25T10:59:49.641Z,1011.86
2017-10-25T11:00:49.625Z,1011.83
2017-10-25T11:01:49.612Z,1011.9
2017-10-25T11:02:49.600Z,1011.77
2017-10-25T11:03:49.588Z,1011.83
2017-10-25T11:04:49.577Z,1011.82
2017-10-25T11:05:49.566Z,1011.83
2017-10-25T11:06:49.557Z,1011.87
2017-10-25T11:07:49.539Z,1011.89
2017-10-25T11:08:49.526Z,1011.85
2017-10-25T11:09:49.614Z,1011.87
2017-10-25T11:10:49.510Z,1011.85
2017-10-25T11:11:49.495Z,1011.84
2017-10-25T11:12:49.479Z,1011.87
2017-10-25T11:13:49.466Z,1011.89
2017-10-25T11:14:49.456Z,1011.9
2017-10-25T11:15:49.443Z,1011.91
2017-10-25T11:16:49.433Z,1011.88
2017-10-25T11:17:49.417Z,1011.92
2017-10-25T11:18:49.406Z,1011.88
2017-10-25T11:19:49.496Z,1011.89
2017-10-25T11:20:49.384Z,1011.87
2017-10-25T11:21:49.372Z,1011.89
2017-10-25T11:22:49.362Z,1011.87
2017-10-25T11:23:49.355Z,1011.87
2017-10-25T11:24:49.537Z,1011.81
2017-10-25T11:25:49.322Z,1011.84
2017-10-25T11:26:49.313Z,1011.86
2017-10-25T11:27:49.299Z,1011.89
2017-10-25T11:28:49.287Z,1011.88
2017-10-25T11:29:49.274Z,1011.82
2017-10-25T11:30:49.262Z,1011.87
2017-10-25T11:31:49.250Z,1011.85
2017-10-25T11:32:49.239Z,1011.83
2017-10-25T11:33:49.227Z,1011.85
2017-10-25T11:34:49.220Z,1011.86
2017-10-25T11:35:49.207Z,1011.85
2017-10-25T11:36:49.191Z,1011.89
2017-10-25T11:37:49.178Z,1011.89
2017-10-25T11:38:49.167Z,1011.91
2017-10-25T11:39:49.156Z,1011.83
2017-10-25T11:40:49.144Z,1011.85
2017-10-25T11:41:49.134Z,1011.92
2017-10-25T11:42:49.120Z,1011.94
2017-10-25T11:43:49.109Z,1011.89
2017-10-25T11:44:49.095Z,1011.94
2017-10-25T11:45:49.084Z,1011.93
2017-10-25T11:46:49.072Z,1011.96
2017-10-25T11:47:49.063Z,1011.94
2017-10-25T11:48:49.049Z,1012
2017-10-25T11:49:49.033Z,1011.99
2017-10-25T11:50:49.023Z,1011.99
2017-10-25T11:51:49.010Z,1012
2017-10-25T11:52:48.998Z,1011.99
2017-10-25T11:53:48.986Z,1011.93
2017-10-25T11:54:48.975Z,1012.04
2017-10-25T11:55:48.967Z,1011.92
2017-10-25T11:56:48.952Z,1011.96
2017-10-25T11:57:48.944Z,1011.95
2017-10-25T11:58:48.927Z,1011.92
2017-10-25T11:59:48.917Z,1012
2017-10-25T12:00:48.903Z,1011.99
2017-10-25T12:01:48.889Z,1011.99
2017-10-25T12:02:48.879Z,1011.98
2017-10-25T12:03:48.866Z,1012
2017-10-25T12:04:48.859Z,1011.99
2017-10-25T12:05:48.840Z,1012.03
2017-10-25T12:06:48.832Z,1011.99
2017-10-25T12:07:48.818Z,1012.02
2017-10-25T12:08:48.805Z,1012.06